Ardsley, NY

1:54 PM EDT on October 20, 2014 (GMT -0400)
Hartsdale | Change Station
CLOSE
Current Station
Personal Weather Station
Location: Hartsdale, NY
Elevation: 341 ft
Nearby Weather Stations

Elev 341 ft 41.01 °N, 73.83 °W | Updated 3 minutes ago

Mostly Cloudy
Mostly Cloudy
58.1 °F
Feels Like 58.1 °F
N
3.2
Wind Variable Wind from SW

Today
High -- | Low -- °F
--% Chance of Precip.
Yesterday
High -- | Low -- °F
Precip. -- in
7:12 AM 6:07 PM
Waning Crescent, 10% visible
Pressure 30.06 in
Visibility 10.0 miles
Clouds Clear
Dew Point 41 °F
Humidity 52%
Rainfall 0.00 in
Snow Depth Not available.
UV 5 out of 12
Pollen 1.10 out of 12
PM2.5 Good
Flu Activity Sporadic
METAR KHPN 201656Z 19007KT 160V240 10SM CLR 12/01 A3005 RMK AO2 SLP177 T01220006

More Conditions Fewer Conditions

Pressure 30.06 in
Visibility 10.0 miles
Clouds Clear
Dew Point 41 °F
Humidity 52%
Rainfall 0.00 in
Snow Depth Not available.
UV 5 out of 12
Pollen 1.10 out of 12
PM2.5 Good
Flu Activity Sporadic
METAR KHPN 201656Z 19007KT 160V240 10SM CLR 12/01 A3005 RMK AO2 SLP177 T01220006

More Conditions Fewer Conditions

10-Day Weather Forecast

Almanac

Astronomy

Oct. 20, 2014 Rise Set
Actual Time 7:12 AM EDT 6:07 PM EDT
Civil Twilight 6:44 AM EDT 6:35 PM EDT
Nautical Twilight 6:12 AM EDT 7:07 PM EDT
Astronomical Twilight 5:40 AM EDT 7:38 PM EDT
Moon 3:56 AM EDT 4:29 PM EDT
Length of Visible Light 11h 50m
Length of Day
10h 54m
Waning Crescent, 10% of the Moon is Illuminated
Today
Waning Crescent
Oct 23
New
Oct 30
First Quarter
Nov 6
Full
Nov 14
Last Quarter

Today's Extremes

State Highs State Lows

Community

WunderPhotos

Upload Photos

1,763,446 photos uploaded!

WunderBlogs® & News

Nearby

Air Quality

  Air Quality AQ Index Pollutant
Yesterday Good
OZONE
Yesterday Good
PM2.5
Current Good
PM2.5
Monday Good
PM2.5

Snow Depth

Station Depth Elevation
No new snow has been reported.

Earthquake Activity

City Distance Mag. Time & Date
No recent earthquake activity has been reported nearby.
Minimum magnitude displayed is 2.5.

Coastal Water Temperatures

Place Temperature
Bridgeport, CT 64.0 °F

Nearby Weather Stations